Alburtis, Pennsylvania
Current Conditions -  °F | °C
As of 1:15 PM on Friday 19 Dec 2014 (Local Time) from KXLL Reporting Station
Overcast Overcast  
Wind Chill: 32°   Ceiling: 3700
Heat Index: 39°   Visibility: 10mi
Dew Point: 23°   Wind: 12mph
Humidity: 52%   Direction: 340°NNW
Pressure: 30.08"   Gusts: NA
Location:  40.51°N, 75.6°W
Report Text: KXLL 191815Z AUTO 34010KT 10SM OVC037 04/M05 A3008 RMK AO2
Loading
Personal Weather Stations






























Interactive Weather Map New forecast layout! Learn more

10-Day Weather Forecast

Advertisements
Track Severe Weather on mobile